createdAt,value
2022-09-01T00:00:53.147Z,101597.13
2022-09-01T00:03:27.805Z,101596.72
2022-09-01T00:06:01.622Z,101605.41
2022-09-01T00:08:32.136Z,101602.50
2022-09-01T00:11:03.295Z,101602.00
2022-09-01T00:13:34.929Z,101600.69
2022-09-01T00:16:07.198Z,101593.44
2022-09-01T00:18:42.561Z,101604.38
2022-09-01T00:21:13.609Z,101603.38
2022-09-01T00:23:43.524Z,101604.97
2022-09-01T00:26:13.961Z,101598.53
2022-09-01T00:28:43.867Z,101598.91
2022-09-01T00:31:15.144Z,101600.34
2022-09-01T00:33:48.150Z,101601.41
2022-09-01T00:36:18.551Z,101601.03
2022-09-01T00:38:49.251Z,101600.97
2022-09-01T00:41:21.847Z,101596.59
2022-09-01T00:43:53.362Z,101600.16
2022-09-01T00:46:29.104Z,101594.84
2022-09-01T00:49:05.548Z,101589.22
2022-09-01T00:51:38.040Z,101591.72
2022-09-01T00:54:10.560Z,101589.44
2022-09-01T00:56:46.416Z,101595.44
2022-09-01T00:59:17.645Z,101593.16
2022-09-01T01:01:47.932Z,101590.88
2022-09-01T01:04:25.509Z,101593.53
2022-09-01T01:07:01.801Z,101589.63
2022-09-01T01:09:35.229Z,101587.34
2022-09-01T01:12:08.609Z,101587.97
2022-09-01T01:14:40.097Z,101584.47
2022-09-01T01:17:10.939Z,101587.09
2022-09-01T01:20:00.441Z,101583.56
2022-09-01T01:22:55.097Z,101584.56
2022-09-01T01:25:27.932Z,101582.53
2022-09-01T01:28:07.825Z,101581.69
2022-09-01T01:30:39.705Z,101586.84
2022-09-01T01:33:10.157Z,101582.63
2022-09-01T01:35:42.462Z,101583.03
2022-09-01T01:38:12.784Z,101600.13
2022-09-01T01:40:45.408Z,101587.56
2022-09-01T01:43:20.064Z,101584.38
2022-09-01T01:45:52.148Z,101583.94
2022-09-01T01:48:24.583Z,101586.75
2022-09-01T01:50:55.812Z,101588.69
2022-09-01T01:53:26.284Z,101585.38
2022-09-01T01:56:00.995Z,101581.53
2022-09-01T01:58:32.650Z,101589.56
2022-09-01T02:01:03.686Z,101578.59
2022-09-01T02:03:38.917Z,101579.22
2022-09-01T02:06:12.292Z,101576.56
2022-09-01T02:08:43.817Z,101577.13
2022-09-01T02:11:17.346Z,101578.06
2022-09-01T02:13:49.431Z,101576.41
2022-09-01T02:16:21.111Z,101578.78
2022-09-01T02:18:53.996Z,101580.81
2022-09-01T02:21:27.210Z,101585.38
2022-09-01T02:24:02.325Z,101589.06
2022-09-01T02:26:39.668Z,101586.00
2022-09-01T02:29:18.130Z,101582.31
2022-09-01T02:31:50.487Z,101580.03
2022-09-01T02:34:21.819Z,101577.13
2022-09-01T02:36:55.711Z,101574.59
2022-09-01T02:39:29.224Z,101568.31
2022-09-01T02:42:02.180Z,101565.31
2022-09-01T02:44:34.718Z,101572.25
2022-09-01T02:47:10.074Z,101566.81
2022-09-01T02:49:40.803Z,101569.13
2022-09-01T02:52:10.972Z,101567.03
2022-09-01T02:54:41.846Z,101569.50
2022-09-01T02:57:14.813Z,101568.88
2022-09-01T02:59:47.560Z,101564.75
2022-09-01T03:02:17.652Z,101565.56
2022-09-01T03:04:51.388Z,101567.47
2022-09-01T03:07:36.671Z,101566.41
2022-09-01T03:10:09.732Z,101566.44
2022-09-01T03:12:42.435Z,101568.94
2022-09-01T03:15:13.345Z,101557.13
2022-09-01T03:17:45.759Z,101567.59
2022-09-01T03:20:16.555Z,101569.56
2022-09-01T03:22:47.481Z,101560.81
2022-09-01T03:25:18.777Z,101561.00
2022-09-01T03:27:51.743Z,101562.84
2022-09-01T03:30:23.892Z,101562.78
2022-09-01T03:32:54.520Z,101562.69
2022-09-01T03:35:25.317Z,101562.72
2022-09-01T03:37:55.766Z,101562.53
2022-09-01T03:40:27.764Z,101555.72
2022-09-01T03:43:00.793Z,101557.91
2022-09-01T03:45:30.954Z,101557.09
2022-09-01T03:48:01.638Z,101562.97
2022-09-01T03:50:31.920Z,101566.66
2022-09-01T03:53:02.464Z,101560.81
2022-09-01T03:55:38.216Z,101565.81
2022-09-01T03:58:14.577Z,101558.16
2022-09-01T04:00:48.946Z,101554.47
2022-09-01T04:03:29.062Z,101552.56
2022-09-01T04:06:02.242Z,101554.75
2022-09-01T04:08:33.676Z,101559.38
2022-09-01T04:11:07.208Z,101559.28
2022-09-01T04:13:42.375Z,101559.41
2022-09-01T04:16:43.078Z,101555.78
2022-09-01T04:19:20.130Z,101557.09
2022-09-01T04:21:53.740Z,101560.47
2022-09-01T04:24:28.346Z,101555.13
2022-09-01T04:27:01.807Z,101564.72
2022-09-01T04:29:34.854Z,101559.94
2022-09-01T04:32:08.085Z,101561.84
2022-09-01T04:34:41.774Z,101562.06
2022-09-01T04:37:14.757Z,101555.38
2022-09-01T04:39:53.666Z,101562.94
2022-09-01T04:42:27.397Z,101563.06
2022-09-01T04:45:05.079Z,101566.06
2022-09-01T04:47:42.208Z,101569.59
2022-09-01T04:50:17.562Z,101565.63
2022-09-01T04:52:48.687Z,101566.63
2022-09-01T04:55:20.161Z,101568.94
2022-09-01T04:57:52.387Z,101567.00
2022-09-01T05:00:26.416Z,101576.47
2022-09-01T05:03:04.726Z,101570.31
2022-09-01T05:05:43.070Z,101574.69
2022-09-01T05:08:23.107Z,101572.22
2022-09-01T05:10:56.815Z,101565.97
2022-09-01T05:13:27.738Z,101570.16
2022-09-01T05:16:13.055Z,101572.19
2022-09-01T05:18:45.153Z,101568.31
2022-09-01T05:21:16.533Z,101564.06
2022-09-01T05:23:49.387Z,101567.22
2022-09-01T05:26:22.185Z,101566.41
2022-09-01T05:28:58.599Z,101568.06
2022-09-01T05:31:34.925Z,101572.44
2022-09-01T05:34:05.264Z,101568.22
2022-09-01T05:36:36.340Z,101562.81
2022-09-01T05:39:07.521Z,101575.66
2022-09-01T05:41:39.860Z,101575.31
2022-09-01T05:44:11.317Z,101578.84
2022-09-01T05:46:45.414Z,101582.06
2022-09-01T05:49:16.947Z,101581.88
2022-09-01T05:51:51.736Z,101576.53
2022-09-01T05:54:25.573Z,101584.09
2022-09-01T05:57:08.389Z,101580.88
2022-09-01T05:59:53.622Z,101581.53
2022-09-01T06:02:28.543Z,101573.88
2022-09-01T06:04:59.945Z,101576.44
2022-09-01T06:07:30.330Z,101579.88
2022-09-01T06:10:00.250Z,101577.25
2022-09-01T06:12:30.336Z,101583.91
2022-09-01T06:15:01.316Z,101590.19
2022-09-01T06:17:35.909Z,101589.53
2022-09-01T06:20:10.840Z,101589.72
2022-09-01T06:22:41.676Z,101587.00
2022-09-01T06:25:13.090Z,101594.34
2022-09-01T06:27:44.903Z,101587.19
2022-09-01T06:30:23.810Z,101590.88
2022-09-01T06:33:02.492Z,101593.34
2022-09-01T06:35:33.033Z,101597.00
2022-09-01T06:38:03.248Z,101596.50
2022-09-01T06:40:33.932Z,101592.63
2022-09-01T06:43:08.063Z,101595.28
2022-09-01T06:45:44.202Z,101588.44
2022-09-01T06:48:17.842Z,101599.81
2022-09-01T06:53:39.036Z,101598.59
2022-09-01T06:56:13.205Z,101598.59
2022-09-01T06:58:45.056Z,101603.56
2022-09-01T07:01:16.289Z,101594.84
2022-09-01T07:03:51.181Z,101591.38
2022-09-01T07:09:22.136Z,101598.66
2022-09-01T07:12:24.233Z,101598.56
2022-09-01T07:17:49.960Z,101607.34
2022-09-01T07:20:25.854Z,101605.31
2022-09-01T07:23:06.246Z,101600.63
2022-09-01T07:28:39.944Z,101604.06
2022-09-01T07:38:03.347Z,101604.63
2022-09-01T07:42:56.940Z,101601.97
2022-09-01T07:45:31.369Z,101604.84
2022-09-01T07:48:03.714Z,101598.19
2022-09-01T07:51:35.080Z,101602.97
2022-09-01T07:53:29.797Z,101597.91
2022-09-01T07:56:03.557Z,101600.53
2022-09-01T07:58:36.039Z,101604.13
2022-09-01T08:01:11.767Z,101610.00
2022-09-01T08:03:43.841Z,101603.34
2022-09-01T08:06:21.118Z,101608.16
2022-09-01T08:08:57.980Z,101610.59
2022-09-01T08:14:23.459Z,101615.19
2022-09-01T08:17:16.810Z,101614.63
2022-09-01T08:19:49.563Z,101614.94
2022-09-01T08:22:25.557Z,101611.53
2022-09-01T08:24:59.162Z,101611.31
2022-09-01T08:27:29.560Z,101620.19
2022-09-01T08:30:00.445Z,101617.16
2022-09-01T08:32:33.006Z,101617.22
2022-09-01T08:35:06.543Z,101615.06
2022-09-01T08:37:40.019Z,101605.00
2022-09-01T08:40:18.697Z,101611.06
2022-09-01T08:43:02.484Z,101610.16
2022-09-01T08:45:56.464Z,101607.88
2022-09-01T08:49:24.356Z,101615.00
2022-09-01T08:52:09.814Z,101610.19
2022-09-01T08:55:05.888Z,101609.25
2022-09-01T08:57:59.730Z,101614.81
2022-09-01T09:00:58.006Z,101609.31
2022-09-01T09:03:55.232Z,101606.88
2022-09-01T09:10:31.736Z,101607.63
2022-09-01T09:13:21.958Z,101599.19
2022-09-01T09:16:27.079Z,101609.94
2022-09-01T09:19:10.673Z,101605.19
2022-09-01T09:22:21.464Z,101611.16
2022-09-01T09:25:23.822Z,101604.78
2022-09-01T09:28:03.884Z,101604.97
2022-09-01T09:31:28.644Z,101608.22
2022-09-01T09:34:02.325Z,101601.50
2022-09-01T09:36:52.356Z,101592.19
2022-09-01T09:39:52.270Z,101592.91
2022-09-01T09:42:47.337Z,101590.81
2022-09-01T09:45:31.900Z,101582.75
2022-09-01T09:48:11.222Z,101590.53
2022-09-01T09:50:53.001Z,101592.72
2022-09-01T09:53:34.642Z,101592.22
2022-09-01T09:56:24.676Z,101591.31
2022-09-01T09:59:29.225Z,101598.78
2022-09-01T10:02:33.194Z,101580.03
2022-09-01T10:05:28.107Z,101587.84
2022-09-01T10:08:06.322Z,101594.66
2022-09-01T10:10:43.709Z,101590.19
2022-09-01T10:13:17.822Z,101592.31
2022-09-01T10:16:05.501Z,101584.78
2022-09-01T10:18:43.238Z,101588.50
2022-09-01T10:21:22.064Z,101579.31
2022-09-01T10:24:20.563Z,101581.41
2022-09-01T10:26:58.778Z,101585.66
2022-09-01T10:30:19.153Z,101574.59
2022-09-01T10:33:12.126Z,101582.75
2022-09-01T10:36:17.715Z,101569.91
2022-09-01T10:39:15.230Z,101574.91
2022-09-01T10:42:08.342Z,101574.81
2022-09-01T10:44:44.459Z,101568.63
2022-09-01T10:47:30.235Z,101564.06
2022-09-01T10:50:07.926Z,101569.31
2022-09-01T10:52:57.229Z,101572.88
2022-09-01T10:55:36.619Z,101567.00
2022-09-01T11:02:24.831Z,101572.13
2022-09-01T11:05:17.804Z,101562.34
2022-09-01T11:08:00.852Z,101557.34
2022-09-01T11:10:49.721Z,101559.13
2022-09-01T11:13:47.730Z,101560.09
2022-09-01T11:16:47.214Z,101562.66
2022-09-01T11:19:27.586Z,101566.34
2022-09-01T11:22:13.080Z,101570.81
2022-09-01T11:25:12.968Z,101567.72
2022-09-01T11:28:01.924Z,101563.09
2022-09-01T11:30:55.602Z,101565.81
2022-09-01T11:33:37.524Z,101567.41
2022-09-01T11:36:10.384Z,101567.00
2022-09-01T11:38:50.595Z,101564.41
2022-09-01T11:41:33.084Z,101568.66
2022-09-01T11:44:15.792Z,101567.63
2022-09-01T11:46:45.749Z,101575.91
2022-09-01T11:49:31.679Z,101571.03
2022-09-01T11:52:03.397Z,101570.47
2022-09-01T11:54:41.799Z,101562.94
2022-09-01T11:57:24.677Z,101565.47
2022-09-01T11:59:58.894Z,101563.59
2022-09-01T12:02:31.989Z,101562.44
2022-09-01T12:05:04.189Z,101560.94
2022-09-01T12:07:43.100Z,101558.75
2022-09-01T12:10:21.401Z,101558.81
2022-09-01T12:12:51.529Z,101559.66
2022-09-01T12:15:28.963Z,101558.38
2022-09-01T12:18:14.757Z,101556.16
2022-09-01T12:20:45.189Z,101562.25
2022-09-01T12:23:28.450Z,101557.75
2022-09-01T12:26:00.883Z,101562.75
2022-09-01T12:28:33.914Z,101555.59
2022-09-01T12:31:09.768Z,101552.25
2022-09-01T12:33:40.230Z,101552.41
2022-09-01T12:36:18.553Z,101553.91
2022-09-01T12:38:48.459Z,101551.19
2022-09-01T12:41:35.176Z,101546.50
2022-09-01T12:44:30.499Z,101544.53
2022-09-01T12:47:06.974Z,101544.69
2022-09-01T12:49:50.356Z,101535.63
2022-09-01T12:52:26.569Z,101543.38
2022-09-01T12:55:10.242Z,101535.72
2022-09-01T12:57:48.556Z,101544.91
2022-09-01T13:00:24.451Z,101542.53
2022-09-01T13:03:10.880Z,101542.13
2022-09-01T13:05:43.098Z,101543.84
2022-09-01T13:08:15.097Z,101534.97
2022-09-01T13:10:48.384Z,101536.22
2022-09-01T13:13:20.327Z,101534.16
2022-09-01T13:15:53.146Z,101533.41
2022-09-01T13:18:27.713Z,101532.09
2022-09-01T13:20:59.801Z,101531.53
2022-09-01T13:23:30.184Z,101530.38
2022-09-01T13:26:00.946Z,101530.69
2022-09-01T13:28:32.032Z,101522.81
2022-09-01T13:34:21.843Z,101519.94
2022-09-01T13:36:52.107Z,101520.31
2022-09-01T13:39:23.612Z,101511.59
2022-09-01T13:41:53.462Z,101510.53
2022-09-01T13:44:23.618Z,101511.38
2022-09-01T13:47:27.757Z,101515.13
2022-09-01T13:50:06.312Z,101507.22
2022-09-01T13:52:36.381Z,101511.16
2022-09-01T13:55:07.361Z,101511.09
2022-09-01T13:57:37.390Z,101509.88
2022-09-01T14:00:11.191Z,101508.63
2022-09-01T14:02:43.024Z,101508.09
2022-09-01T14:05:16.200Z,101516.25
2022-09-01T14:07:47.118Z,101511.91
2022-09-01T14:10:18.995Z,101507.22
2022-09-01T14:12:50.170Z,101512.97
2022-09-01T14:15:27.181Z,101495.53
2022-09-01T14:18:00.461Z,101501.19
2022-09-01T14:20:36.944Z,101499.81
2022-09-01T14:23:08.427Z,101492.97
2022-09-01T14:25:38.937Z,101492.25
2022-09-01T14:28:09.068Z,101482.66
2022-09-01T14:30:39.648Z,101485.53
2022-09-01T14:33:09.850Z,101480.13
2022-09-01T14:35:46.015Z,101481.22
2022-09-01T14:38:17.242Z,101480.16
2022-09-01T14:40:52.071Z,101477.69
2022-09-01T14:43:22.697Z,101479.78
2022-09-01T14:45:53.713Z,101472.56
2022-09-01T14:48:23.869Z,101477.09
2022-09-01T14:50:56.940Z,101465.41
2022-09-01T14:53:28.670Z,101467.97
2022-09-01T14:56:00.085Z,101472.97
2022-09-01T14:58:31.608Z,101461.97
2022-09-01T15:01:17.544Z,101471.91
2022-09-01T15:03:52.312Z,101466.66
2022-09-01T15:06:26.109Z,101467.31
2022-09-01T15:08:55.985Z,101454.13
2022-09-01T15:11:26.090Z,101459.03
2022-09-01T15:13:56.311Z,101451.84
2022-09-01T15:16:28.902Z,101454.91
2022-09-01T15:18:59.079Z,101442.31
2022-09-01T15:21:34.049Z,101451.69
2022-09-01T15:24:05.161Z,101450.94
2022-09-01T15:26:35.889Z,101453.66
2022-09-01T15:29:07.037Z,101446.91
2022-09-01T15:31:37.094Z,101447.56
2022-09-01T15:34:08.673Z,101446.78
2022-09-01T15:36:44.847Z,101444.44
2022-09-01T15:39:15.093Z,101445.06
2022-09-01T15:41:47.079Z,101439.88
2022-09-01T15:44:17.336Z,101441.88
2022-09-01T15:46:47.516Z,101447.78
2022-09-01T15:49:18.124Z,101440.34
2022-09-01T15:51:50.896Z,101444.38
2022-09-01T15:54:25.058Z,101434.56
2022-09-01T15:56:57.243Z,101438.09
2022-09-01T15:59:27.212Z,101438.63
2022-09-01T16:01:59.568Z,101431.56
2022-09-01T16:04:29.445Z,101441.38
2022-09-01T16:07:01.980Z,101434.59
2022-09-01T16:09:32.628Z,101443.31
2022-09-01T16:12:02.638Z,101438.41
2022-09-01T16:14:32.561Z,101442.75
2022-09-01T16:17:06.187Z,101446.59
2022-09-01T16:19:43.115Z,101442.25
2022-09-01T16:22:23.713Z,101446.84
2022-09-01T16:25:00.303Z,101439.22
2022-09-01T16:27:37.236Z,101445.50
2022-09-01T16:30:10.857Z,101438.41
2022-09-01T16:32:48.069Z,101441.38
2022-09-01T16:35:20.949Z,101434.31
2022-09-01T16:38:07.951Z,101436.22
2022-09-01T16:48:10.957Z,101433.50
2022-09-01T16:50:52.870Z,101424.50
2022-09-01T16:53:40.726Z,101433.22
2022-09-01T16:56:14.859Z,101425.03
2022-09-01T17:14:54.744Z,101423.66
2022-09-01T17:23:58.972Z,101435.31
2022-09-01T17:35:48.382Z,101456.72
2022-09-01T17:39:45.160Z,101461.88
2022-09-01T17:47:09.593Z,101464.06
2022-09-01T17:49:53.860Z,101462.25
2022-09-01T17:52:40.175Z,101467.31
2022-09-01T17:55:17.575Z,101469.41
2022-09-01T17:57:57.246Z,101471.41
2022-09-01T18:00:34.875Z,101470.25
2022-09-01T18:03:36.890Z,101468.97
2022-09-01T18:06:11.934Z,101477.69
2022-09-01T18:08:45.866Z,101473.66
2022-09-01T18:11:21.432Z,101472.41
2022-09-01T18:13:59.028Z,101473.56
2022-09-01T18:16:34.478Z,101474.94
2022-09-01T18:19:08.432Z,101475.19
2022-09-01T18:21:40.505Z,101480.69
2022-09-01T18:24:17.556Z,101476.59
2022-09-01T18:26:50.438Z,101477.06
2022-09-01T18:29:21.463Z,101481.84
2022-09-01T18:32:27.669Z,101488.22
2022-09-01T18:35:11.647Z,101482.84
2022-09-01T18:37:52.662Z,101492.91
2022-09-01T18:40:33.075Z,101494.69
2022-09-01T18:43:16.949Z,101491.53
2022-09-01T18:46:04.241Z,101496.81
2022-09-01T18:48:57.666Z,101497.53
2022-09-01T18:51:50.737Z,101498.69
2022-09-01T18:54:26.307Z,101497.63
2022-09-01T18:57:01.736Z,101500.78
2022-09-01T18:59:56.474Z,101501.47
2022-09-01T19:02:51.754Z,101507.59
2022-09-01T19:05:41.651Z,101500.66
2022-09-01T19:08:25.946Z,101504.25
2022-09-01T19:11:01.828Z,101508.66
2022-09-01T19:13:48.517Z,101510.97
2022-09-01T19:16:43.312Z,101506.03
2022-09-01T19:19:27.112Z,101515.00
2022-09-01T19:22:00.417Z,101511.34
2022-09-01T19:24:36.564Z,101508.97
2022-09-01T19:27:15.950Z,101516.38
2022-09-01T19:30:04.804Z,101510.31
2022-09-01T19:32:59.630Z,101518.13
2022-09-01T19:35:37.950Z,101510.94
2022-09-01T19:38:20.199Z,101510.59
2022-09-01T19:40:55.597Z,101510.16
2022-09-01T19:43:28.198Z,101514.66
2022-09-01T19:46:18.360Z,101509.63
2022-09-01T19:49:13.573Z,101519.41
2022-09-01T19:52:32.499Z,101519.72
2022-09-01T19:55:14.620Z,101515.66
2022-09-01T19:57:54.288Z,101513.28
2022-09-01T20:00:31.976Z,101522.47
2022-09-01T20:03:13.159Z,101520.13
2022-09-01T20:05:46.865Z,101518.28
2022-09-01T20:08:24.439Z,101523.59
2022-09-01T20:11:07.288Z,101520.06
2022-09-01T20:13:47.838Z,101517.44
2022-09-01T20:16:27.304Z,101517.63
2022-09-01T20:19:03.796Z,101528.63
2022-09-01T20:21:40.190Z,101511.09
2022-09-01T20:24:22.891Z,101519.41
2022-09-01T20:27:43.735Z,101528.28
2022-09-01T20:30:26.613Z,101522.91
2022-09-01T20:37:17.027Z,101524.75
2022-09-01T20:37:30.687Z,101528.28
2022-09-01T20:40:01.747Z,101520.25
2022-09-01T20:42:45.598Z,101525.00
2022-09-01T20:45:22.582Z,101529.94
2022-09-01T20:47:58.026Z,101526.44
2022-09-01T20:50:43.187Z,101530.38
2022-09-01T20:53:38.315Z,101524.41
2022-09-01T20:56:24.883Z,101528.13
2022-09-01T20:59:06.691Z,101538.44
2022-09-01T21:01:43.855Z,101530.81
2022-09-01T21:04:38.712Z,101528.53
2022-09-01T21:07:16.477Z,101526.25
2022-09-01T21:09:55.907Z,101527.28
2022-09-01T21:12:41.350Z,101530.38
2022-09-01T21:15:27.210Z,101528.06
2022-09-01T21:18:10.679Z,101530.13
2022-09-01T21:20:53.826Z,101532.81
2022-09-01T21:23:26.269Z,101537.09
2022-09-01T21:26:02.262Z,101533.81
2022-09-01T21:28:33.544Z,101533.41
2022-09-01T21:31:10.527Z,101538.56
2022-09-01T21:33:41.149Z,101539.16
2022-09-01T21:36:13.859Z,101542.88
2022-09-01T21:38:48.081Z,101535.41
2022-09-01T21:41:19.828Z,101535.56
2022-09-01T21:43:53.532Z,101538.47
2022-09-01T21:46:36.728Z,101529.56
2022-09-01T21:49:14.436Z,101533.88
2022-09-01T21:51:45.466Z,101537.78
2022-09-01T21:54:18.641Z,101539.38
2022-09-01T21:56:55.588Z,101537.31
2022-09-01T21:59:29.507Z,101536.81
2022-09-01T22:02:02.872Z,101538.91
2022-09-01T22:04:33.547Z,101530.03
2022-09-01T22:07:04.244Z,101537.78
2022-09-01T22:09:35.548Z,101531.84
2022-09-01T22:12:06.553Z,101530.59
2022-09-01T22:14:37.291Z,101527.34
2022-09-01T22:17:10.789Z,101525.31
2022-09-01T22:19:41.515Z,101526.59
2022-09-01T22:22:16.670Z,101517.72
2022-09-01T22:24:47.276Z,101519.88
2022-09-01T22:27:17.218Z,101522.38
2022-09-01T22:29:47.087Z,101520.84
2022-09-01T22:32:23.125Z,101523.13
2022-09-01T22:34:53.073Z,101525.31
2022-09-01T22:37:23.709Z,101521.78
2022-09-01T22:39:54.173Z,101522.75
2022-09-01T22:42:25.010Z,101524.50
2022-09-01T22:44:55.153Z,101519.19
2022-09-01T22:47:30.767Z,101514.50
2022-09-01T22:50:05.863Z,101517.88
2022-09-01T22:52:40.260Z,101519.50
2022-09-01T22:55:13.763Z,101513.38
2022-09-01T22:57:44.008Z,101516.22
2022-09-01T23:00:25.585Z,101519.91
2022-09-01T23:03:02.486Z,101518.59
2022-09-01T23:05:36.077Z,101520.78
2022-09-01T23:08:10.340Z,101522.28
2022-09-01T23:10:41.869Z,101512.66
2022-09-01T23:13:13.843Z,101515.53
2022-09-01T23:15:45.212Z,101513.97
2022-09-01T23:18:19.454Z,101513.34
2022-09-01T23:20:49.921Z,101508.75
2022-09-01T23:23:21.486Z,101508.75
2022-09-01T23:25:53.644Z,101509.13
2022-09-01T23:28:26.142Z,101506.00
2022-09-01T23:30:59.083Z,101507.97
2022-09-01T23:33:33.087Z,101513.69
2022-09-01T23:36:04.285Z,101509.63
2022-09-01T23:38:35.687Z,101504.44
2022-09-01T23:41:10.903Z,101497.66
2022-09-01T23:43:42.938Z,101495.63
2022-09-01T23:46:24.001Z,101501.22
2022-09-01T23:48:58.494Z,101492.34
2022-09-01T23:51:30.768Z,101495.16
2022-09-01T23:54:02.333Z,101500.38
2022-09-01T23:56:35.037Z,101494.78
2022-09-01T23:59:06.444Z,101502.31
